createdAt,value
2017-09-05T00:02:11.045Z,101138.34
2017-09-05T00:04:39.126Z,101147.94
2017-09-05T00:07:07.037Z,101153.16
2017-09-05T00:12:49.504Z,101143.43
2017-09-05T00:15:17.851Z,101145.19
2017-09-05T00:20:52.432Z,101139.06
2017-09-05T00:23:20.341Z,101146.08
2017-09-05T00:25:48.311Z,101146.07
2017-09-05T00:28:16.219Z,101151.75
2017-09-05T00:30:44.315Z,101150.03
2017-09-05T00:33:12.272Z,101147.35
2017-09-05T00:35:40.168Z,101146.00
2017-09-05T00:38:08.112Z,101147.73
2017-09-05T00:40:36.033Z,101137.23
2017-09-05T00:43:03.951Z,101146.38
2017-09-05T00:45:31.888Z,101145.08
2017-09-05T00:47:59.789Z,101140.27
2017-09-05T00:50:27.685Z,101145.38
2017-09-05T00:52:55.636Z,101147.11
2017-09-05T00:55:23.551Z,101152.45
2017-09-05T00:57:51.471Z,101150.20
2017-09-05T01:00:19.422Z,101150.19
2017-09-05T01:02:47.389Z,101153.34
2017-09-05T01:05:15.359Z,101147.12
2017-09-05T01:07:43.314Z,101145.35
2017-09-05T01:10:11.291Z,101131.34
2017-09-05T01:12:39.421Z,101135.72
2017-09-05T01:15:07.335Z,101144.41
2017-09-05T01:17:35.409Z,101134.31
2017-09-05T01:20:03.436Z,101135.98
2017-09-05T01:22:31.446Z,101134.23
2017-09-05T01:24:59.356Z,101135.11
2017-09-05T01:27:27.309Z,101138.59
2017-09-05T01:29:55.252Z,101129.45
2017-09-05T01:32:23.202Z,101127.27
2017-09-05T01:34:51.129Z,101128.97
2017-09-05T01:37:19.108Z,101132.47
2017-09-05T01:39:47.018Z,101131.55
2017-09-05T01:42:14.934Z,101133.28
2017-09-05T01:44:42.839Z,101131.53
2017-09-05T01:47:10.750Z,101127.14
2017-09-05T01:49:38.650Z,101129.27
2017-09-05T01:52:06.646Z,101122.25
2017-09-05T01:54:34.621Z,101123.98
2017-09-05T01:57:02.587Z,101125.78
2017-09-05T01:59:30.561Z,101120.09
2017-09-05T02:01:58.987Z,101120.58
2017-09-05T02:04:26.892Z,101125.71
2017-09-05T02:06:54.833Z,101132.71
2017-09-05T02:09:22.729Z,101125.66
2017-09-05T02:11:50.719Z,101120.88
2017-09-05T02:14:18.686Z,101117.33
2017-09-05T02:16:46.647Z,101119.52
2017-09-05T02:19:14.613Z,101118.98
2017-09-05T02:21:42.525Z,101122.05
2017-09-05T02:24:10.452Z,101125.16
2017-09-05T02:26:38.380Z,101119.02
2017-09-05T02:31:40.624Z,101121.14
2017-09-05T02:34:08.525Z,101116.38
2017-09-05T02:36:36.450Z,101118.52
2017-09-05T02:39:04.376Z,101113.75
2017-09-05T02:41:32.276Z,101112.88
2017-09-05T02:44:00.234Z,101112.55
2017-09-05T02:46:28.203Z,101112.88
2017-09-05T02:48:56.113Z,101107.64
2017-09-05T02:51:24.138Z,101112.42
2017-09-05T02:53:52.049Z,101105.88
2017-09-05T02:56:19.996Z,101111.94
2017-09-05T02:58:47.960Z,101118.87
2017-09-05T03:01:15.859Z,101118.40
2017-09-05T03:03:43.795Z,101130.70
2017-09-05T03:06:11.764Z,101127.13
2017-09-05T03:08:39.723Z,101131.01
2017-09-05T03:11:07.634Z,101132.36
2017-09-05T03:13:35.540Z,101124.73
2017-09-05T03:16:03.536Z,101119.92
2017-09-05T03:18:31.492Z,101117.39
2017-09-05T03:21:00.204Z,101120.53
2017-09-05T03:23:28.097Z,101120.52
2017-09-05T03:25:56.079Z,101112.11
2017-09-05T03:28:24.094Z,101116.02
2017-09-05T03:30:51.990Z,101114.78
2017-09-05T03:33:19.939Z,101113.38
2017-09-05T03:35:47.994Z,101116.88
2017-09-05T03:38:15.961Z,101116.86
2017-09-05T03:40:43.875Z,101118.13
2017-09-05T03:43:11.800Z,101120.64
2017-09-05T03:45:39.772Z,101116.59
2017-09-05T03:48:07.686Z,101116.73
2017-09-05T03:50:35.590Z,101126.27
2017-09-05T03:53:03.524Z,101123.08
2017-09-05T03:55:31.431Z,101128.27
2017-09-05T03:57:59.362Z,101119.57
2017-09-05T04:00:27.376Z,101129.23
2017-09-05T04:02:55.280Z,101121.50
2017-09-05T04:05:23.188Z,101130.02
2017-09-05T04:07:51.180Z,101132.77
2017-09-05T04:10:19.103Z,101133.58
2017-09-05T04:12:47.024Z,101137.02
2017-09-05T04:15:14.949Z,101136.13
2017-09-05T04:17:42.960Z,101141.82
2017-09-05T04:20:10.867Z,101139.47
2017-09-05T04:22:38.758Z,101143.95
2017-09-05T04:25:06.759Z,101152.10
2017-09-05T04:27:34.720Z,101138.14
2017-09-05T04:30:02.625Z,101132.38
2017-09-05T04:32:30.564Z,101132.80
2017-09-05T04:34:58.526Z,101134.27
2017-09-05T04:37:26.443Z,101131.72
2017-09-05T04:39:54.353Z,101130.50
2017-09-05T04:42:22.261Z,101136.25
2017-09-05T04:44:50.192Z,101137.14
2017-09-05T04:47:18.160Z,101142.06
2017-09-05T04:49:46.066Z,101139.02
2017-09-05T04:52:13.990Z,101134.81
2017-09-05T04:54:42.061Z,101134.50
2017-09-05T04:57:10.046Z,101143.86
2017-09-05T04:59:37.954Z,101147.91
2017-09-05T05:02:05.890Z,101145.46
2017-09-05T05:04:33.804Z,101134.61
2017-09-05T05:07:01.729Z,101141.12
2017-09-05T05:09:29.640Z,101140.73
2017-09-05T05:11:57.548Z,101134.53
2017-09-05T05:14:25.798Z,101142.14
2017-09-05T05:16:53.695Z,101137.92
2017-09-05T05:19:21.671Z,101140.07
2017-09-05T05:21:49.618Z,101143.71
2017-09-05T05:24:17.561Z,101148.13
2017-09-05T05:26:45.483Z,101140.08
2017-09-05T05:29:13.391Z,101140.09
2017-09-05T05:31:41.335Z,101138.33
2017-09-05T05:34:09.373Z,101145.29
2017-09-05T05:36:37.266Z,101140.32
2017-09-05T05:39:05.186Z,101151.77
2017-09-05T05:41:33.171Z,101153.39
2017-09-05T05:44:01.084Z,101159.42
2017-09-05T05:46:29.065Z,101161.14
2017-09-05T05:48:57.033Z,101161.21
2017-09-05T05:51:25.043Z,101160.34
2017-09-05T05:53:52.944Z,101157.52
2017-09-05T05:56:20.851Z,101149.36
2017-09-05T05:58:48.847Z,101152.60
2017-09-05T06:01:16.760Z,101152.20
2017-09-05T06:03:44.654Z,101144.59
2017-09-05T06:06:12.608Z,101147.30
2017-09-05T06:08:40.514Z,101151.19
2017-09-05T06:11:08.443Z,101150.03
2017-09-05T06:13:36.459Z,101146.72
2017-09-05T06:16:05.126Z,101147.93
2017-09-05T06:18:33.067Z,101148.03
2017-09-05T06:21:01.077Z,101151.48
2017-09-05T06:23:28.985Z,101142.58
2017-09-05T06:25:56.900Z,101146.85
2017-09-05T06:28:24.794Z,101147.05
2017-09-05T06:30:52.694Z,101144.77
2017-09-05T06:33:20.624Z,101145.27
2017-09-05T06:35:48.544Z,101150.67
2017-09-05T06:38:16.553Z,101145.45
2017-09-05T06:40:44.525Z,101147.52
2017-09-05T06:43:12.436Z,101141.66
2017-09-05T06:45:40.347Z,101142.33
2017-09-05T06:48:08.320Z,101139.98
2017-09-05T06:50:36.278Z,101137.68
2017-09-05T06:53:04.842Z,101141.32
2017-09-05T06:55:32.952Z,101138.55
2017-09-05T06:58:00.856Z,101143.93
2017-09-05T07:00:28.846Z,101135.74
2017-09-05T07:02:56.885Z,101139.27
2017-09-05T07:05:24.769Z,101147.48
2017-09-05T07:07:52.691Z,101147.39
2017-09-05T07:10:20.655Z,101152.81
2017-09-05T07:12:48.581Z,101149.84
2017-09-05T07:15:16.503Z,101144.19
2017-09-05T07:17:44.548Z,101146.58
2017-09-05T07:20:12.473Z,101148.80
2017-09-05T07:22:40.385Z,101149.49
2017-09-05T07:25:08.316Z,101137.70
2017-09-05T07:27:36.238Z,101144.67
2017-09-05T07:30:04.195Z,101145.94
2017-09-05T07:32:32.112Z,101143.38
2017-09-05T07:35:00.063Z,101149.92
2017-09-05T07:37:28.009Z,101151.03
2017-09-05T07:39:55.924Z,101151.95
2017-09-05T07:42:23.828Z,101155.89
2017-09-05T07:44:51.869Z,101163.29
2017-09-05T07:47:19.784Z,101166.24
2017-09-05T07:49:47.704Z,101162.87
2017-09-05T07:52:15.703Z,101159.06
2017-09-05T07:54:43.695Z,101153.16
2017-09-05T07:57:11.625Z,101154.09
2017-09-05T07:59:39.550Z,101150.28
2017-09-05T08:02:07.456Z,101149.14
2017-09-05T08:04:35.372Z,101152.05
2017-09-05T08:07:03.284Z,101152.54
2017-09-05T08:09:31.287Z,101160.52
2017-09-05T08:11:59.269Z,101161.19
2017-09-05T08:14:27.241Z,101163.67
2017-09-05T08:16:55.167Z,101160.91
2017-09-05T08:19:23.169Z,101173.88
2017-09-05T08:21:51.093Z,101163.85
2017-09-05T08:24:19.047Z,101170.27
2017-09-05T08:26:46.963Z,101176.05
2017-09-05T08:29:14.897Z,101172.61
2017-09-05T08:31:42.864Z,101166.31
2017-09-05T08:34:10.767Z,101177.33
2017-09-05T08:36:38.843Z,101174.24
2017-09-05T08:39:06.811Z,101179.19
2017-09-05T08:41:34.893Z,101176.52
2017-09-05T08:44:02.792Z,101173.39
2017-09-05T08:49:22.310Z,101170.56
2017-09-05T08:51:50.221Z,101167.91
2017-09-05T08:54:18.296Z,101167.73
2017-09-05T08:56:46.206Z,101171.54
2017-09-05T08:59:14.133Z,101167.14
2017-09-05T09:01:42.069Z,101172.34
2017-09-05T09:04:09.969Z,101168.66
2017-09-05T09:06:37.931Z,101172.60
2017-09-05T09:09:05.884Z,101178.59
2017-09-05T09:11:33.812Z,101171.51
2017-09-05T09:14:01.760Z,101170.06
2017-09-05T09:16:29.681Z,101167.02
2017-09-05T09:18:57.655Z,101166.58
2017-09-05T09:21:25.566Z,101162.98
2017-09-05T09:23:53.472Z,101162.93
2017-09-05T09:26:21.404Z,101159.55
2017-09-05T09:28:49.332Z,101168.78
2017-09-05T09:31:17.247Z,101162.39
2017-09-05T09:33:45.266Z,101158.41
2017-09-05T09:36:13.168Z,101158.11
2017-09-05T09:38:41.075Z,101156.44
2017-09-05T09:41:08.992Z,101163.48
2017-09-05T09:43:37.035Z,101156.80
2017-09-05T09:46:04.964Z,101160.96
2017-09-05T09:48:32.976Z,101164.77
2017-09-05T09:51:00.879Z,101163.81
2017-09-05T09:53:28.803Z,101156.93
2017-09-05T09:55:56.713Z,101159.41
2017-09-05T09:58:24.611Z,101161.05
2017-09-05T10:00:52.518Z,101162.71
2017-09-05T10:03:20.423Z,101160.06
2017-09-05T10:05:48.361Z,101153.09
2017-09-05T10:08:16.312Z,101155.00
2017-09-05T10:10:44.220Z,101150.02
2017-09-05T10:13:12.216Z,101154.92
2017-09-05T10:15:40.137Z,101156.01
2017-09-05T10:18:08.033Z,101155.94
2017-09-05T10:20:35.936Z,101152.71
2017-09-05T10:23:03.941Z,101145.50
2017-09-05T10:25:31.850Z,101144.05
2017-09-05T10:27:59.751Z,101156.23
2017-09-05T10:30:27.671Z,101152.31
2017-09-05T10:32:55.579Z,101148.41
2017-09-05T10:35:23.572Z,101147.17
2017-09-05T10:37:51.463Z,101141.68
2017-09-05T10:40:19.383Z,101146.42
2017-09-05T10:42:47.351Z,101148.20
2017-09-05T10:45:15.254Z,101144.52
2017-09-05T10:47:43.200Z,101140.96
2017-09-05T10:50:11.112Z,101133.11
2017-09-05T10:52:39.020Z,101138.13
2017-09-05T10:55:06.939Z,101134.41
2017-09-05T10:57:34.972Z,101150.39
2017-09-05T11:00:02.872Z,101142.53
2017-09-05T11:02:30.780Z,101138.83
2017-09-05T11:04:58.690Z,101135.22
2017-09-05T11:07:26.645Z,101137.61
2017-09-05T11:09:54.604Z,101138.30
2017-09-05T11:12:22.533Z,101135.81
2017-09-05T11:14:50.436Z,101135.87
2017-09-05T11:17:18.360Z,101131.14
2017-09-05T11:19:46.255Z,101129.80
2017-09-05T11:22:14.170Z,101133.83
2017-09-05T11:24:42.083Z,101131.63
2017-09-05T11:27:10.073Z,101128.61
2017-09-05T11:29:38.928Z,101116.97
2017-09-05T11:32:06.831Z,101119.44
2017-09-05T11:34:34.746Z,101118.36
2017-09-05T11:37:02.668Z,101123.41
2017-09-05T11:39:30.652Z,101119.39
2017-09-05T11:41:58.569Z,101109.72
2017-09-05T11:44:26.584Z,101107.09
2017-09-05T11:46:54.489Z,101098.47
2017-09-05T11:49:22.606Z,101102.98
2017-09-05T11:51:50.614Z,101102.19
2017-09-05T11:54:18.560Z,101104.20
2017-09-05T11:56:46.513Z,101103.28
2017-09-05T11:59:14.451Z,101085.78
2017-09-05T12:01:42.467Z,101099.67
2017-09-05T12:04:10.362Z,101096.52
2017-09-05T12:06:38.272Z,101097.42
2017-09-05T12:09:06.263Z,101093.67
2017-09-05T12:11:34.240Z,101093.22
2017-09-05T12:14:02.165Z,101090.22
2017-09-05T12:16:30.202Z,101082.45
2017-09-05T12:18:58.127Z,101080.84
2017-09-05T12:21:26.087Z,101087.80
2017-09-05T12:23:53.997Z,101082.16
2017-09-05T12:26:21.946Z,101084.28
2017-09-05T12:28:50.002Z,101087.64
2017-09-05T12:31:18.041Z,101084.13
2017-09-05T12:33:45.963Z,101082.33
2017-09-05T12:36:13.857Z,101077.30
2017-09-05T12:38:44.025Z,101085.96
2017-09-05T12:41:15.545Z,101080.30
2017-09-05T12:43:48.477Z,101079.15
2017-09-05T12:46:20.359Z,101077.61
2017-09-05T12:48:48.276Z,101073.81
2017-09-05T12:51:16.189Z,101074.63
2017-09-05T12:53:44.120Z,101073.91
2017-09-05T12:56:12.058Z,101073.61
2017-09-05T12:58:39.978Z,101070.05
2017-09-05T13:01:07.874Z,101066.05
2017-09-05T13:03:35.793Z,101066.34
2017-09-05T13:06:03.893Z,101061.41
2017-09-05T13:08:31.850Z,101058.58
2017-09-05T13:10:59.814Z,101058.23
2017-09-05T13:13:27.736Z,101053.59
2017-09-05T13:15:55.641Z,101053.86
2017-09-05T13:18:23.564Z,101048.29
2017-09-05T13:20:51.459Z,101046.93
2017-09-05T13:23:19.447Z,101037.71
2017-09-05T13:25:47.423Z,101041.95
2017-09-05T13:28:15.327Z,101039.28
2017-09-05T13:30:43.262Z,101031.48
2017-09-05T13:33:11.234Z,101043.06
2017-09-05T13:35:39.205Z,101045.95
2017-09-05T13:38:07.193Z,101035.97
2017-09-05T13:40:35.106Z,101040.37
2017-09-05T13:43:03.021Z,101042.95
2017-09-05T13:45:31.070Z,101038.95
2017-09-05T13:47:58.972Z,101039.75
2017-09-05T13:50:26.912Z,101043.00
2017-09-05T13:52:54.837Z,101036.42
2017-09-05T13:55:22.853Z,101032.94
2017-09-05T13:57:50.861Z,101039.91
2017-09-05T14:00:22.155Z,101038.00
2017-09-05T14:02:50.127Z,101040.55
2017-09-05T14:05:18.094Z,101033.98
2017-09-05T14:07:45.999Z,101036.68
2017-09-05T14:10:13.912Z,101041.58
2017-09-05T14:12:41.817Z,101041.77
2017-09-05T14:15:09.726Z,101038.30
2017-09-05T14:17:37.698Z,101034.05
2017-09-05T14:20:05.611Z,101034.80
2017-09-05T14:22:33.519Z,101033.28
2017-09-05T14:25:01.498Z,101030.08
2017-09-05T14:27:29.403Z,101027.48
2017-09-05T14:29:57.303Z,101033.05
2017-09-05T14:32:25.232Z,101042.34
2017-09-05T14:34:53.131Z,101043.33
2017-09-05T14:37:21.070Z,101036.03
2017-09-05T14:39:48.995Z,101038.24
2017-09-05T14:42:16.912Z,101038.49
2017-09-05T14:44:44.822Z,101033.94
2017-09-05T14:47:12.768Z,101036.61
2017-09-05T14:49:40.676Z,101030.59
2017-09-05T14:52:08.688Z,101034.02
2017-09-05T14:54:36.642Z,101032.50
2017-09-05T14:57:04.627Z,101032.80
2017-09-05T14:59:32.533Z,101031.06
2017-09-05T15:02:00.466Z,101027.78
2017-09-05T15:04:28.361Z,101033.55
2017-09-05T15:06:56.274Z,101029.66
2017-09-05T15:09:24.268Z,101031.84
2017-09-05T15:11:52.222Z,101029.05
2017-09-05T15:14:20.196Z,101034.52
2017-09-05T15:16:48.184Z,101032.22
2017-09-05T15:19:16.131Z,101038.72
2017-09-05T15:21:44.056Z,101036.06
2017-09-05T15:24:11.966Z,101034.58
2017-09-05T15:26:39.858Z,101022.48
2017-09-05T15:29:07.816Z,101026.02
2017-09-05T15:31:35.721Z,101030.97
2017-09-05T15:34:03.623Z,101024.73
2017-09-05T15:36:31.624Z,101023.53
2017-09-05T15:38:59.550Z,101023.17
2017-09-05T15:41:27.536Z,101021.20
2017-09-05T15:43:55.455Z,101017.41
2017-09-05T15:46:23.384Z,101015.27
2017-09-05T15:48:51.291Z,101019.41
2017-09-05T15:51:19.225Z,101025.95
2017-09-05T15:53:47.129Z,101023.02
2017-09-05T15:56:15.146Z,101016.56
2017-09-05T15:58:43.060Z,101021.30
2017-09-05T16:01:11.054Z,101024.88
2017-09-05T16:03:38.979Z,101027.41
2017-09-05T16:06:07.035Z,101020.39
2017-09-05T16:08:34.961Z,101023.59
2017-09-05T16:11:02.988Z,101027.22
2017-09-05T16:13:30.897Z,101026.92
2017-09-05T16:15:58.914Z,101028.72
2017-09-05T16:18:26.822Z,101027.91
2017-09-05T16:20:54.759Z,101026.73
2017-09-05T16:23:22.708Z,101029.22
2017-09-05T16:25:50.599Z,101026.77
2017-09-05T16:28:18.507Z,101015.96
2017-09-05T16:30:46.442Z,101017.50
2017-09-05T16:33:14.380Z,101020.31
2017-09-05T16:35:42.351Z,101017.72
2017-09-05T16:38:10.260Z,101014.78
2017-09-05T16:40:38.189Z,101011.47
2017-09-05T16:43:06.151Z,101009.05
2017-09-05T16:45:34.084Z,101009.53
2017-09-05T16:48:01.979Z,101003.59
2017-09-05T16:50:29.915Z,101009.35
2017-09-05T16:52:57.836Z,101004.69
2017-09-05T16:55:25.827Z,101012.45
2017-09-05T16:57:53.763Z,101003.92
2017-09-05T17:00:21.712Z,101009.42
2017-09-05T17:02:49.751Z,101005.67
2017-09-05T17:05:17.653Z,100999.84
2017-09-05T17:07:45.565Z,101005.16
2017-09-05T17:10:13.615Z,100997.11
2017-09-05T17:12:41.606Z,101005.48
2017-09-05T17:15:09.528Z,100999.12
2017-09-05T17:17:37.481Z,101002.19
2017-09-05T17:20:05.375Z,101004.14
2017-09-05T17:22:33.330Z,101007.53
2017-09-05T17:25:01.444Z,101001.73
2017-09-05T17:27:29.330Z,101000.67
2017-09-05T17:29:57.263Z,100994.63
2017-09-05T17:32:25.175Z,101004.30
2017-09-05T17:34:53.075Z,101009.31
2017-09-05T17:37:20.993Z,101004.39
2017-09-05T17:39:49.091Z,101005.95
2017-09-05T17:42:17.007Z,101001.41
2017-09-05T17:44:44.924Z,101003.63
2017-09-05T17:47:12.937Z,101003.23
2017-09-05T17:49:40.849Z,101007.16
2017-09-05T17:52:08.771Z,101009.97
2017-09-05T17:54:36.698Z,101009.94
2017-09-05T17:57:04.596Z,101012.16
2017-09-05T17:59:32.495Z,101014.30
2017-09-05T18:02:00.398Z,101015.06
2017-09-05T18:04:28.302Z,101018.30
2017-09-05T18:06:56.268Z,101011.42
2017-09-05T18:09:24.254Z,101014.02
2017-09-05T18:11:52.201Z,101021.62
2017-09-05T18:14:20.177Z,101020.88
2017-09-05T18:16:48.130Z,101019.02
2017-09-05T18:19:16.043Z,101025.22
2017-09-05T18:21:44.097Z,101022.98
2017-09-05T18:24:12.143Z,101023.90
2017-09-05T18:26:40.186Z,101019.06
2017-09-05T18:29:08.092Z,101020.93
2017-09-05T18:31:36.012Z,101023.43
2017-09-05T18:34:03.948Z,101026.08
2017-09-05T18:36:31.852Z,101023.78
2017-09-05T18:38:59.747Z,101024.66
2017-09-05T18:41:27.651Z,101030.19
2017-09-05T18:43:55.564Z,101023.80
2017-09-05T18:46:23.505Z,101020.09
2017-09-05T18:48:51.406Z,101023.74
2017-09-05T18:51:19.303Z,101019.83
2017-09-05T18:53:47.274Z,101011.73
2017-09-05T18:56:15.187Z,101017.53
2017-09-05T18:58:43.101Z,101020.48
2017-09-05T19:01:11.074Z,101020.95
2017-09-05T19:03:39.113Z,101015.82
2017-09-05T19:06:07.241Z,101016.63
2017-09-05T19:08:35.188Z,101022.14
2017-09-05T19:11:03.223Z,101025.47
2017-09-05T19:13:31.229Z,101022.39
2017-09-05T19:15:59.132Z,101016.49
2017-09-05T19:18:27.045Z,101022.48
2017-09-05T19:20:54.989Z,101017.16
2017-09-05T19:23:22.889Z,101022.98
2017-09-05T19:25:50.813Z,101017.21
2017-09-05T19:28:18.770Z,101021.86
2017-09-05T19:30:46.679Z,101020.70
2017-09-05T19:33:14.593Z,101014.06
2017-09-05T19:35:42.524Z,101018.86
2017-09-05T19:38:10.505Z,101009.23
2017-09-05T19:40:38.476Z,101011.93
2017-09-05T19:43:06.431Z,101014.13
2017-09-05T19:45:34.404Z,101015.02
2017-09-05T19:48:02.325Z,101015.32
2017-09-05T19:50:30.240Z,101007.34
2017-09-05T19:52:58.284Z,101007.73
2017-09-05T19:55:26.330Z,101000.27
2017-09-05T19:57:54.234Z,101004.01
2017-09-05T20:00:22.272Z,101002.69
2017-09-05T20:02:50.327Z,100995.19
2017-09-05T20:05:18.250Z,100994.40
2017-09-05T20:07:46.220Z,100994.86
2017-09-05T20:10:14.300Z,100994.80
2017-09-05T20:12:42.199Z,100994.03
2017-09-05T20:15:10.137Z,100993.74
2017-09-05T20:17:38.038Z,100987.61
2017-09-05T20:20:05.943Z,100994.22
2017-09-05T20:22:33.883Z,101002.04
2017-09-05T20:25:01.795Z,101001.32
2017-09-05T20:27:29.842Z,100993.61
2017-09-05T20:29:57.782Z,100992.58
2017-09-05T20:32:25.719Z,100997.84
2017-09-05T20:34:53.688Z,101003.25
2017-09-05T20:37:21.599Z,101002.02
2017-09-05T20:39:49.603Z,100998.16
2017-09-05T20:42:17.539Z,101004.11
2017-09-05T20:44:45.445Z,100999.02
2017-09-05T20:47:13.364Z,101000.41
2017-09-05T20:49:41.271Z,100996.45
2017-09-05T20:52:09.171Z,100999.49
2017-09-05T20:54:37.108Z,100998.58
2017-09-05T20:57:05.008Z,100995.09
2017-09-05T20:59:32.899Z,100993.81
2017-09-05T21:02:01.236Z,100991.81
2017-09-05T21:04:29.134Z,100997.36
2017-09-05T21:06:57.156Z,100992.54
2017-09-05T21:09:25.069Z,100990.29
2017-09-05T21:11:52.986Z,100987.58
2017-09-05T21:14:20.903Z,100984.08
2017-09-05T21:16:48.934Z,100984.59
2017-09-05T21:19:16.903Z,100980.14
2017-09-05T21:21:44.820Z,100986.22
2017-09-05T21:24:12.742Z,100984.84
2017-09-05T21:26:40.673Z,100978.77
2017-09-05T21:29:08.684Z,100981.12
2017-09-05T21:31:36.580Z,100969.17
2017-09-05T21:34:04.503Z,100971.69
2017-09-05T21:36:32.481Z,100965.74
2017-09-05T21:39:00.387Z,100967.62
2017-09-05T21:41:28.287Z,100967.03
2017-09-05T21:43:56.248Z,100967.18
2017-09-05T21:46:24.268Z,100972.94
2017-09-05T21:48:52.183Z,100969.11
2017-09-05T21:51:20.198Z,100966.23
2017-09-05T21:53:48.116Z,100960.17
2017-09-05T21:56:16.146Z,100961.19
2017-09-05T21:58:44.072Z,100956.92
2017-09-05T22:01:12.083Z,100952.55
2017-09-05T22:03:39.992Z,100958.78
2017-09-05T22:06:08.004Z,100959.80
2017-09-05T22:08:35.912Z,100956.30
2017-09-05T22:11:03.836Z,100955.50
2017-09-05T22:13:31.745Z,100951.19
2017-09-05T22:15:59.668Z,100947.75
2017-09-05T22:18:33.161Z,100954.48
2017-09-05T22:21:06.611Z,100946.81
2017-09-05T22:23:34.526Z,100950.36
2017-09-05T22:26:08.205Z,100939.78
2017-09-05T22:28:41.576Z,100941.54
2017-09-05T22:31:09.511Z,100941.21
2017-09-05T22:33:37.479Z,100939.06
2017-09-05T22:36:05.423Z,100942.59
2017-09-05T22:38:33.352Z,100936.56
2017-09-05T22:41:01.276Z,100940.97
2017-09-05T22:43:29.195Z,100930.90
2017-09-05T22:45:57.105Z,100930.14
2017-09-05T22:48:25.012Z,100924.92
2017-09-05T22:50:52.949Z,100927.15
2017-09-05T22:53:20.865Z,100928.03
2017-09-05T22:55:48.796Z,100925.01
2017-09-05T22:58:16.702Z,100922.88
2017-09-05T23:00:44.771Z,100926.38
2017-09-05T23:03:12.684Z,100917.15
2017-09-05T23:05:40.813Z,100914.58
2017-09-05T23:08:08.745Z,100914.66
2017-09-05T23:10:36.673Z,100908.92
2017-09-05T23:13:04.664Z,100913.67
2017-09-05T23:15:32.596Z,100917.15
2017-09-05T23:18:00.552Z,100917.19
2017-09-05T23:20:28.609Z,100915.38
2017-09-05T23:22:56.538Z,100907.00
2017-09-05T23:25:24.469Z,100906.27
2017-09-05T23:27:52.468Z,100909.81
2017-09-05T23:30:20.380Z,100903.66
2017-09-05T23:32:48.299Z,100901.80
2017-09-05T23:35:16.258Z,100899.67
2017-09-05T23:37:44.163Z,100897.11
2017-09-05T23:40:12.105Z,100889.20
2017-09-05T23:42:40.032Z,100884.47
2017-09-05T23:45:07.940Z,100883.16
2017-09-05T23:47:35.847Z,100877.89
2017-09-05T23:50:03.884Z,100872.66
2017-09-05T23:52:31.877Z,100870.04
2017-09-05T23:54:59.811Z,100872.66
2017-09-05T23:57:27.845Z,100872.22
2017-09-05T23:59:55.746Z,100868.22
